Time;durP1;ratioP1;P1;durP2;ratioP2;P2;SDS_P1;SDS_P2;PMS_P1;PMS_P2;Temp;Humidity;BMP_temperature;BMP_pressure;BME280_temperature;BME280_humidity;BME280_pressure;Samples;Min_cycle;Max_cycle;Signal;HPM_P1;HPM_P2
2022/06/26 00:01:01;;;;;;;12.35;10.63;;;18.50;99.90;;;;;;5020674;28;20042;-83
2022/06/26 00:03:28;;;;;;;15.80;11.25;;;18.50;99.90;;;;;;5015555;28;20045;-83
2022/06/26 00:05:54;;;;;;;12.90;11.48;;;18.40;99.90;;;;;;5003369;28;20053;-84
2022/06/26 00:08:19;;;;;;;17.58;11.80;;;18.40;99.90;;;;;;5032864;28;20068;-83
2022/06/26 00:10:46;;;;;;;12.27;11.18;;;18.40;99.90;;;;;;5019437;28;20053;-84
2022/06/26 00:13:12;;;;;;;12.20;10.55;;;18.40;99.90;;;;;;4993696;28;20076;-84
2022/06/26 00:15:38;;;;;;;12.77;11.10;;;18.40;99.90;;;;;;5030719;28;20072;-84
2022/06/26 00:18:04;;;;;;;13.73;11.98;;;18.30;99.90;;;;;;5011838;28;20033;-84
2022/06/26 00:20:30;;;;;;;13.40;11.93;;;18.30;99.90;;;;;;5014815;28;20045;-83
2022/06/26 00:22:56;;;;;;;13.13;11.82;;;18.30;99.90;;;;;;5020287;28;20045;-84
2022/06/26 00:25:21;;;;;;;12.32;11.02;;;18.20;99.90;;;;;;4989846;28;20030;-84
2022/06/26 00:27:47;;;;;;;14.77;11.82;;;18.20;99.90;;;;;;5020042;28;20052;-85
2022/06/26 00:30:13;;;;;;;13.50;11.40;;;18.20;99.90;;;;;;5004996;28;20037;-84
2022/06/26 00:32:39;;;;;;;13.60;12.25;;;18.10;99.90;;;;;;5009838;28;20037;-84
2022/06/26 00:35:06;;;;;;;12.93;11.57;;;18.10;99.90;;;;;;5033747;28;20122;-85
2022/06/26 00:37:32;;;;;;;13.27;11.68;;;17.90;99.90;;;;;;5012387;28;20061;-84
2022/06/26 00:39:58;;;;;;;12.45;11.23;;;18.00;99.90;;;;;;4981948;28;20041;-84
2022/06/26 00:42:24;;;;;;;15.00;11.50;;;18.00;99.90;;;;;;5012151;28;20116;-84
2022/06/26 00:44:52;;;;;;;12.65;11.35;;;18.00;99.90;;;;;;5026366;28;20042;-86
2022/06/26 00:47:18;;;;;;;13.85;12.55;;;17.90;99.90;;;;;;4996521;28;20092;-84
2022/06/26 00:49:44;;;;;;;14.85;12.57;;;17.90;99.90;;;;;;5022543;28;20038;-85
2022/06/26 00:52:11;;;;;;;15.23;13.57;;;17.90;99.90;;;;;;5010627;28;20033;-83
2022/06/26 00:54:37;;;;;;;13.68;11.43;;;17.80;99.90;;;;;;4999603;28;20033;-85
2022/06/26 00:57:03;;;;;;;15.85;12.43;;;17.80;99.90;;;;;;5013045;28;20243;-84
2022/06/26 00:59:30;;;;;;;14.25;12.82;;;17.80;99.90;;;;;;5018940;28;20494;-86
2022/06/26 01:01:56;;;;;;;14.77;13.38;;;17.80;99.90;;;;;;5025150;28;20178;-83
2022/06/26 01:04:22;;;;;;;13.63;12.30;;;17.80;99.90;;;;;;5018877;28;20160;-85
2022/06/26 01:06:48;;;;;;;14.25;12.60;;;17.70;99.90;;;;;;5013453;28;20069;-85
2022/06/26 01:09:14;;;;;;;14.05;12.55;;;17.70;99.90;;;;;;5027374;28;20136;-86
2022/06/26 01:11:42;;;;;;;14.60;13.10;;;17.70;99.90;;;;;;5036990;28;20057;-84
2022/06/26 01:14:09;;;;;;;15.30;13.10;;;17.70;99.90;;;;;;5027707;28;20041;-85
2022/06/26 01:16:36;;;;;;;15.27;13.57;;;17.70;99.90;;;;;;5026390;28;20494;-85
2022/06/26 01:19:04;;;;;;;15.38;13.77;;;17.70;99.90;;;;;;5009791;28;20045;-84
2022/06/26 01:21:30;;;;;;;15.40;13.80;;;17.70;99.90;;;;;;5019059;28;20050;-84
2022/06/26 01:23:56;;;;;;;17.02;14.95;;;17.70;99.90;;;;;;5002970;28;20575;-84
2022/06/26 01:26:22;;;;;;;20.38;14.40;;;17.70;99.90;;;;;;5031339;28;20037;-84
2022/06/26 01:28:48;;;;;;;15.10;13.50;;;17.70;99.90;;;;;;4999176;28;20076;-84
2022/06/26 01:31:14;;;;;;;16.27;14.68;;;17.70;99.90;;;;;;5003620;28;20123;-84
2022/06/26 01:33:40;;;;;;;17.52;15.60;;;17.60;99.90;;;;;;5043191;28;20402;-84
2022/06/26 01:36:06;;;;;;;17.27;15.23;;;17.60;99.90;;;;;;5017131;28;20048;-85
2022/06/26 01:38:32;;;;;;;17.10;15.20;;;17.70;99.90;;;;;;5024182;28;20185;-84
2022/06/26 01:40:58;;;;;;;17.27;15.57;;;17.60;99.90;;;;;;4993719;28;20524;-83
2022/06/26 01:43:27;;;;;;;18.90;15.70;;;17.60;99.90;;;;;;5009068;28;20503;-83
2022/06/26 01:45:54;;;;;;;17.58;13.32;;;17.70;99.90;;;;;;5011195;28;20041;-83
2022/06/26 01:48:22;;;;;;;15.75;13.57;;;17.70;99.90;;;;;;5027535;28;20069;-84
2022/06/26 01:50:48;;;;;;;17.88;13.90;;;17.70;99.90;;;;;;5025426;28;20073;-81
2022/06/26 01:53:15;;;;;;;17.80;14.23;;;17.90;99.90;;;;;;5016387;28;20049;-84
2022/06/26 01:55:41;;;;;;;16.00;13.73;;;18.00;99.90;;;;;;5026429;28;20049;-83
2022/06/26 01:58:08;;;;;;;14.05;12.60;;;18.10;99.90;;;;;;5022009;28;20076;-83
2022/06/26 02:00:36;;;;;;;14.60;13.18;;;18.20;99.90;;;;;;5042734;28;20056;-84
2022/06/26 02:03:03;;;;;;;15.43;13.70;;;18.20;99.90;;;;;;5029148;28;20459;-83
2022/06/26 02:05:29;;;;;;;15.80;13.23;;;18.30;99.90;;;;;;5008244;28;20030;-84
2022/06/26 02:07:55;;;;;;;15.50;13.57;;;18.30;99.90;;;;;;4979634;28;20502;-83
2022/06/26 02:15:52;;;;;;;17.80;14.25;;;18.40;99.90;;;;;;5028971;28;20041;-82
2022/06/26 02:18:19;;;;;;;21.85;15.55;;;18.40;99.90;;;;;;4991764;28;20486;-81
2022/06/26 02:20:45;;;;;;;20.55;17.10;;;18.40;99.90;;;;;;5026372;28;20073;-81
2022/06/26 02:23:12;;;;;;;23.38;18.20;;;18.40;99.90;;;;;;5026364;28;20037;-80
2022/06/26 02:25:38;;;;;;;22.92;16.98;;;18.30;99.90;;;;;;5029894;28;20068;-81
2022/06/26 02:28:04;;;;;;;22.95;18.60;;;18.30;99.90;;;;;;5022362;28;20409;-79
2022/06/26 02:30:29;;;;;;;24.73;19.35;;;18.20;99.90;;;;;;4995016;28;20045;-79
2022/06/26 02:32:58;;;;;;;21.90;19.60;;;18.20;99.90;;;;;;4995753;28;20461;-78
2022/06/26 02:35:26;;;;;;;23.95;20.17;;;18.20;99.90;;;;;;4979839;28;20521;-79
2022/06/26 02:37:54;;;;;;;26.20;20.63;;;18.20;99.90;;;;;;5014783;28;20046;-79
2022/06/26 02:40:21;;;;;;;26.77;21.88;;;18.10;99.90;;;;;;5046617;28;20064;-79
2022/06/26 02:42:47;;;;;;;26.00;20.05;;;18.10;99.90;;;;;;5030351;28;20037;-79
2022/06/26 02:45:13;;;;;;;27.00;20.92;;;18.10;99.90;;;;;;5009109;28;20040;-79
2022/06/26 02:47:39;;;;;;;22.65;20.27;;;18.10;99.90;;;;;;5015336;28;20545;-79
2022/06/26 02:50:06;;;;;;;22.90;19.75;;;18.00;99.90;;;;;;5040674;28;20120;-79
2022/06/26 02:52:32;;;;;;;23.33;20.35;;;18.00;99.90;;;;;;5003766;28;20046;-78
2022/06/26 02:54:58;;;;;;;23.95;20.52;;;18.00;99.90;;;;;;5030214;28;20494;-79
2022/06/26 02:57:23;;;;;;;29.38;21.90;;;18.00;99.90;;;;;;5011272;28;20041;-79
2022/06/26 02:59:49;;;;;;;26.52;21.45;;;18.00;99.90;;;;;;5008719;28;20249;-79
2022/06/26 03:02:15;;;;;;;23.98;20.33;;;18.00;99.90;;;;;;5012270;28;20069;-78
2022/06/26 03:04:42;;;;;;;31.10;21.10;;;17.90;99.90;;;;;;5029965;28;20036;-78
2022/06/26 03:07:08;;;;;;;26.75;20.38;;;18.00;99.90;;;;;;5018385;28;20037;-78
2022/06/26 03:09:34;;;;;;;22.13;19.73;;;18.00;99.90;;;;;;5027621;28;20064;-79
2022/06/26 03:12:00;;;;;;;23.77;19.02;;;18.00;99.90;;;;;;5030370;28;20124;-77
2022/06/26 03:14:26;;;;;;;22.83;19.50;;;17.90;99.90;;;;;;5028024;28;20245;-78
2022/06/26 03:16:51;;;;;;;22.63;18.70;;;17.90;99.90;;;;;;5014794;28;20064;-78
2022/06/26 03:19:17;;;;;;;27.75;17.88;;;17.90;99.90;;;;;;5034222;28;20041;-78
2022/06/26 03:21:43;;;;;;;20.63;16.30;;;17.90;99.90;;;;;;5029583;28;20049;-77
2022/06/26 03:24:08;;;;;;;19.98;15.25;;;17.80;99.90;;;;;;5017109;28;21553;-77
2022/06/26 03:26:36;;;;;;;17.52;15.00;;;17.80;99.90;;;;;;4990742;28;20083;-77
2022/06/26 03:29:05;;;;;;;17.33;13.90;;;17.70;99.90;;;;;;4985667;28;20103;-78
2022/06/26 03:31:31;;;;;;;17.05;14.57;;;17.70;99.90;;;;;;5013124;28;20045;-78
2022/06/26 03:33:57;;;;;;;16.02;14.43;;;17.70;99.90;;;;;;5026450;28;20569;-78
2022/06/26 03:36:24;;;;;;;15.15;13.65;;;17.60;99.90;;;;;;5018033;28;20033;-77
2022/06/26 03:38:51;;;;;;;14.73;12.93;;;17.60;99.90;;;;;;5019847;28;20041;-78
2022/06/26 03:41:18;;;;;;;17.77;12.73;;;17.60;99.90;;;;;;5027076;28;20547;-78
2022/06/26 03:43:44;;;;;;;16.90;12.05;;;17.50;99.90;;;;;;5010124;28;20106;-79
2022/06/26 03:46:10;;;;;;;14.40;11.10;;;17.50;99.90;;;;;;4994565;28;20376;-78
2022/06/26 03:48:36;;;;;;;10.35;9.30;;;17.50;99.90;;;;;;5009513;28;20050;-78
2022/06/26 03:51:02;;;;;;;13.20;10.20;;;17.40;99.90;;;;;;5029837;28;20033;-78
2022/06/26 03:53:28;;;;;;;9.70;8.15;;;17.40;99.90;;;;;;5012235;28;20133;-78
2022/06/26 03:55:54;;;;;;;11.10;8.52;;;17.40;99.90;;;;;;5035438;28;20042;-79
2022/06/26 03:58:20;;;;;;;9.95;8.27;;;17.40;99.90;;;;;;5013027;28;20044;-79
2022/06/26 04:00:46;;;;;;;9.18;7.97;;;17.30;99.90;;;;;;4995664;28;20037;-79
2022/06/26 04:03:12;;;;;;;10.88;8.35;;;17.30;99.90;;;;;;5006835;28;20233;-79
2022/06/26 04:05:37;;;;;;;10.77;7.85;;;17.20;99.90;;;;;;5009197;28;20072;-79
2022/06/26 04:08:04;;;;;;;10.95;7.50;;;17.20;99.90;;;;;;5011873;28;20506;-78
2022/06/26 04:10:30;;;;;;;8.70;7.80;;;17.10;99.90;;;;;;5029789;28;20129;-78
2022/06/26 04:13:05;;;;;;;7.47;6.75;;;17.10;99.90;;;;;;5011250;28;20597;-79
2022/06/26 04:15:32;;;;;;;9.05;7.15;;;17.10;99.90;;;;;;5029043;28;20419;-79
2022/06/26 04:17:58;;;;;;;11.35;7.13;;;17.00;99.90;;;;;;5012334;28;20042;-79
2022/06/26 04:20:25;;;;;;;8.25;6.72;;;17.00;99.90;;;;;;5013085;28;20142;-78
2022/06/26 04:22:59;;;;;;;9.82;7.32;;;16.90;99.90;;;;;;5026861;28;20099;-79
2022/06/26 04:25:26;;;;;;;10.10;7.15;;;16.90;99.90;;;;;;5037921;28;20060;-79
2022/06/26 04:27:52;;;;;;;10.15;7.32;;;16.90;99.90;;;;;;5017319;28;20029;-79
2022/06/26 04:30:18;;;;;;;8.02;6.57;;;16.90;99.90;;;;;;5031303;28;20194;-79
2022/06/26 04:32:44;;;;;;;9.95;7.07;;;16.80;99.90;;;;;;5026426;28;20505;-78
2022/06/26 04:35:10;;;;;;;12.60;7.55;;;16.80;99.90;;;;;;5035960;28;20041;-78
2022/06/26 04:37:37;;;;;;;7.82;6.75;;;16.80;99.90;;;;;;5008456;28;20096;-78
2022/06/26 04:40:04;;;;;;;10.50;6.90;;;16.80;99.90;;;;;;5007581;28;20036;-77
2022/06/26 04:42:31;;;;;;;7.60;6.80;;;16.80;99.90;;;;;;5022027;28;20029;-78
2022/06/26 04:44:56;;;;;;;8.23;6.55;;;16.80;99.90;;;;;;5026258;28;20034;-78
2022/06/26 04:47:22;;;;;;;9.98;6.63;;;16.70;99.90;;;;;;5024892;28;20095;-79
2022/06/26 04:49:48;;;;;;;12.43;7.20;;;16.70;99.90;;;;;;5025974;28;20056;-79
2022/06/26 04:52:14;;;;;;;8.55;7.63;;;16.70;99.90;;;;;;5028445;28;20080;-78
2022/06/26 04:54:41;;;;;;;9.60;7.90;;;16.70;99.90;;;;;;5010426;28;20080;-78
2022/06/26 04:57:07;;;;;;;9.98;7.65;;;16.70;99.90;;;;;;5009180;28;20414;-77
2022/06/26 04:59:32;;;;;;;10.02;7.22;;;16.70;99.90;;;;;;5009342;28;20053;-78
2022/06/26 05:01:58;;;;;;;10.32;7.43;;;16.70;99.90;;;;;;5027944;28;20052;-78
2022/06/26 05:04:24;;;;;;;9.48;7.70;;;16.60;99.90;;;;;;5009511;28;20034;-77
2022/06/26 05:06:50;;;;;;;12.38;7.95;;;16.60;99.90;;;;;;5042665;28;20044;-77
2022/06/26 05:09:16;;;;;;;12.07;8.13;;;16.60;99.90;;;;;;5014782;28;20044;-77
2022/06/26 05:11:43;;;;;;;12.10;8.63;;;16.60;99.90;;;;;;5024133;28;20134;-77
2022/06/26 05:14:09;;;;;;;13.32;7.72;;;16.70;99.90;;;;;;5020225;28;20103;-77
2022/06/26 05:16:35;;;;;;;13.05;8.10;;;16.70;99.90;;;;;;5019011;28;20046;-78
2022/06/26 05:19:01;;;;;;;14.77;8.23;;;16.80;99.90;;;;;;4994449;28;20045;-77
2022/06/26 05:21:27;;;;;;;10.88;9.02;;;16.90;99.90;;;;;;5028312;28;20041;-78
2022/06/26 05:23:53;;;;;;;10.85;7.97;;;16.90;99.90;;;;;;5024694;28;20046;-78
2022/06/26 05:26:19;;;;;;;11.65;7.95;;;17.00;99.90;;;;;;5030339;28;20042;-77
2022/06/26 05:28:44;;;;;;;10.07;7.45;;;17.00;99.90;;;;;;5007911;28;20391;-77
2022/06/26 05:31:10;;;;;;;9.35;7.95;;;17.10;99.90;;;;;;5019566;28;20045;-78
2022/06/26 05:33:36;;;;;;;9.77;7.72;;;17.20;99.90;;;;;;5025643;28;20098;-78
2022/06/26 05:36:02;;;;;;;11.68;8.38;;;17.20;99.90;;;;;;5026834;28;20519;-78
2022/06/26 05:38:27;;;;;;;11.95;8.32;;;17.30;99.90;;;;;;5027219;28;20099;-78
2022/06/26 05:40:53;;;;;;;10.80;7.25;;;17.30;99.90;;;;;;5009653;28;20103;-78
2022/06/26 05:43:19;;;;;;;9.20;7.22;;;17.30;99.90;;;;;;5007994;28;20040;-77
2022/06/26 05:45:44;;;;;;;9.57;7.80;;;17.40;99.90;;;;;;5009183;28;20084;-77
2022/06/26 05:48:10;;;;;;;9.43;7.05;;;17.40;99.90;;;;;;5018184;28;20030;-77
2022/06/26 05:50:36;;;;;;;9.95;7.30;;;17.50;99.90;;;;;;5010050;28;20774;-78
2022/06/26 05:53:02;;;;;;;9.75;6.80;;;17.50;99.90;;;;;;5006986;28;20120;-80
2022/06/26 05:55:28;;;;;;;8.85;7.28;;;17.50;99.90;;;;;;5011590;28;20090;-78
2022/06/26 05:57:53;;;;;;;8.27;7.25;;;17.50;99.90;;;;;;5007644;28;20407;-78
2022/06/26 06:00:19;;;;;;;7.88;6.22;;;17.60;99.90;;;;;;5027329;28;20041;-78
2022/06/26 06:02:46;;;;;;;11.00;7.40;;;17.60;99.90;;;;;;5011863;28;20037;-78
2022/06/26 06:05:12;;;;;;;8.35;7.30;;;17.70;99.90;;;;;;5008829;28;20119;-78
2022/06/26 06:07:38;;;;;;;10.70;6.70;;;17.80;99.90;;;;;;5027928;28;20077;-78
2022/06/26 06:10:06;;;;;;;9.18;7.05;;;17.90;99.90;;;;;;5004809;28;20038;-78
2022/06/26 06:12:32;;;;;;;8.68;7.70;;;17.90;99.90;;;;;;5009140;28;20096;-78
2022/06/26 06:14:58;;;;;;;9.02;8.13;;;18.00;99.90;;;;;;5010457;28;20046;-79
2022/06/26 06:17:36;;;;;;;10.45;8.02;;;18.00;99.90;;;;;;5011318;28;20036;-78
2022/06/26 06:20:04;;;;;;;12.55;9.50;;;18.00;99.90;;;;;;5020733;28;20049;-79
2022/06/26 06:22:30;;;;;;;10.65;9.40;;;18.10;99.90;;;;;;5008449;28;20041;-78
2022/06/26 06:24:56;;;;;;;10.70;9.20;;;18.20;99.90;;;;;;5000342;28;20045;-79
2022/06/26 06:27:22;;;;;;;13.10;10.68;;;18.20;99.90;;;;;;5032211;28;20033;-78
2022/06/26 06:29:48;;;;;;;11.32;9.75;;;18.30;99.90;;;;;;5002902;28;20033;-79
2022/06/26 06:32:14;;;;;;;13.95;11.32;;;18.30;99.90;;;;;;4997704;28;20045;-78
2022/06/26 06:34:40;;;;;;;14.07;11.00;;;18.40;99.90;;;;;;5010241;28;20065;-80
2022/06/26 06:37:06;;;;;;;11.95;10.52;;;18.40;99.90;;;;;;5008256;28;20579;-79
2022/06/26 06:39:32;;;;;;;13.63;11.55;;;18.50;99.90;;;;;;5023006;28;20044;-80
2022/06/26 06:41:58;;;;;;;14.75;11.82;;;18.60;99.90;;;;;;4999898;28;20037;-80
2022/06/26 06:44:23;;;;;;;14.20;11.95;;;18.60;99.90;;;;;;5011712;28;20678;-80
2022/06/26 06:46:49;;;;;;;14.30;12.18;;;18.50;99.90;;;;;;5005844;28;20041;-80
2022/06/26 06:49:15;;;;;;;15.18;13.18;;;18.50;99.90;;;;;;4983331;28;20034;-80
2022/06/26 06:51:41;;;;;;;14.02;11.80;;;18.40;99.90;;;;;;5012010;28;20450;-80
2022/06/26 06:54:06;;;;;;;19.10;12.68;;;18.40;99.90;;;;;;5005853;28;20479;-80
2022/06/26 06:56:32;;;;;;;14.82;12.75;;;18.30;99.90;;;;;;5018349;28;20042;-80
2022/06/26 06:58:58;;;;;;;14.43;12.88;;;18.30;99.90;;;;;;5002296;28;20046;-80
2022/06/26 07:01:24;;;;;;;18.38;12.77;;;18.30;99.90;;;;;;5008881;28;20040;-80
2022/06/26 07:03:49;;;;;;;14.20;12.80;;;18.30;99.90;;;;;;5026919;28;20045;-81
2022/06/26 07:06:15;;;;;;;16.33;12.18;;;18.30;99.90;;;;;;5004267;28;20120;-80
2022/06/26 07:08:41;;;;;;;14.30;12.80;;;18.30;99.90;;;;;;5011001;28;20037;-81
2022/06/26 07:11:07;;;;;;;13.82;11.88;;;18.30;99.90;;;;;;5013724;28;20483;-80
2022/06/26 07:13:33;;;;;;;15.48;11.95;;;18.40;99.90;;;;;;4994863;28;20041;-80
2022/06/26 07:15:58;;;;;;;15.27;12.48;;;18.50;99.90;;;;;;5026918;28;20049;-79
2022/06/26 07:18:24;;;;;;;13.10;11.63;;;18.60;99.90;;;;;;5018775;28;20041;-80
2022/06/26 07:20:50;;;;;;;12.90;11.55;;;18.60;99.90;;;;;;4994669;28;20033;-80
2022/06/26 07:23:16;;;;;;;14.52;11.77;;;18.60;99.90;;;;;;5011964;28;20052;-79
2022/06/26 07:25:42;;;;;;;15.20;12.43;;;18.50;99.90;;;;;;5027472;28;20041;-79
2022/06/26 07:28:08;;;;;;;14.35;11.73;;;18.50;99.90;;;;;;5025985;28;20095;-81
2022/06/26 07:30:35;;;;;;;11.98;10.70;;;18.50;99.90;;;;;;5023719;28;20052;-80
2022/06/26 07:33:05;;;;;;;12.02;10.60;;;18.60;99.90;;;;;;5027708;28;20477;-81
2022/06/26 07:35:30;;;;;;;11.05;9.93;;;18.70;99.90;;;;;;5027554;28;20034;-80
2022/06/26 07:37:56;;;;;;;16.10;10.65;;;18.90;99.90;;;;;;5008074;28;20054;-81
2022/06/26 07:40:22;;;;;;;12.20;10.93;;;18.90;99.90;;;;;;5006143;28;20124;-82
2022/06/26 07:42:48;;;;;;;18.52;10.75;;;19.00;99.90;;;;;;5012713;28;20041;-84
2022/06/26 07:45:13;;;;;;;13.25;11.18;;;19.10;99.90;;;;;;4992662;28;20380;-81
2022/06/26 07:47:39;;;;;;;13.20;11.00;;;19.10;99.90;;;;;;5021773;28;20037;-81
2022/06/26 07:50:05;;;;;;;10.77;9.57;;;19.00;99.90;;;;;;5029961;28;21291;-82
2022/06/26 07:52:31;;;;;;;11.63;9.73;;;18.90;99.90;;;;;;5016286;28;20060;-83
2022/06/26 07:54:57;;;;;;;11.00;9.93;;;18.80;99.90;;;;;;5028026;28;20403;-84
2022/06/26 07:57:23;;;;;;;12.60;10.65;;;18.80;99.90;;;;;;5026005;28;20073;-83
2022/06/26 07:59:49;;;;;;;14.27;11.63;;;18.90;99.90;;;;;;5020980;28;20050;-83
2022/06/26 08:02:14;;;;;;;14.10;12.60;;;19.00;99.90;;;;;;5020812;28;20121;-82
2022/06/26 08:04:40;;;;;;;14.38;12.88;;;19.00;99.90;;;;;;5007247;28;20034;-83
2022/06/26 08:07:06;;;;;;;12.05;10.85;;;19.00;99.90;;;;;;5020766;28;20045;-83
2022/06/26 08:09:31;;;;;;;11.77;10.52;;;19.10;99.90;;;;;;4997995;28;20050;-83
2022/06/26 08:11:57;;;;;;;13.10;9.85;;;19.20;99.90;;;;;;5004317;28;20044;-82
2022/06/26 08:14:23;;;;;;;10.05;9.05;;;19.50;99.90;;;;;;5031586;28;20042;-83
2022/06/26 08:16:49;;;;;;;15.05;10.32;;;19.60;99.90;;;;;;5001565;28;20130;-82
2022/06/26 08:19:14;;;;;;;11.73;9.23;;;19.70;99.90;;;;;;5005321;28;20368;-82
2022/06/26 08:24:24;;;;;;;12.45;9.85;;;20.20;99.90;;;;;;4992534;28;20034;-84
2022/06/26 08:26:50;;;;;;;14.88;12.90;;;20.30;99.90;;;;;;5021978;28;20040;-83
2022/06/26 08:29:16;;;;;;;15.57;13.32;;;20.30;99.90;;;;;;5020365;28;20045;-81
2022/06/26 08:31:41;;;;;;;14.32;11.25;;;20.30;99.90;;;;;;5002453;28;20375;-81
2022/06/26 08:34:07;;;;;;;13.95;11.45;;;20.40;99.90;;;;;;5015692;28;20038;-82
2022/06/26 08:36:33;;;;;;;12.00;10.82;;;20.50;99.90;;;;;;5002337;28;20141;-83
2022/06/26 08:38:58;;;;;;;11.57;10.25;;;20.60;99.90;;;;;;5019023;28;20426;-83
2022/06/26 08:41:29;;;;;;;11.88;10.50;;;20.70;99.90;;;;;;5022512;28;20037;-84
2022/06/26 08:43:58;;;;;;;11.93;9.10;;;20.80;99.90;;;;;;5015298;28;20459;-82
2022/06/26 08:46:27;;;;;;;10.85;9.75;;;21.00;99.90;;;;;;5033170;28;20046;-86
2022/06/26 08:48:56;;;;;;;10.98;8.85;;;21.00;99.90;;;;;;5036032;28;20045;-83
2022/06/26 08:51:22;;;;;;;10.40;9.10;;;21.00;99.90;;;;;;5019993;28;20056;-83
2022/06/26 08:53:50;;;;;;;8.57;7.75;;;21.10;99.90;;;;;;5031141;28;20050;-82
2022/06/26 08:56:17;;;;;;;10.43;8.07;;;21.20;99.90;;;;;;5002772;28;20108;-82
2022/06/26 08:58:42;;;;;;;9.80;8.80;;;21.20;99.90;;;;;;5010162;28;20500;-82
2022/06/26 09:01:08;;;;;;;10.05;9.05;;;21.30;99.90;;;;;;5016362;28;20073;-83
2022/06/26 09:03:34;;;;;;;7.30;5.95;;;21.30;99.90;;;;;;5029801;28;20041;-84
2022/06/26 09:06:02;;;;;;;5.63;5.13;;;21.30;99.90;;;;;;5008809;28;20105;-80
2022/06/26 09:08:29;;;;;;;6.38;5.65;;;21.30;99.90;;;;;;5023852;28;20069;-83
2022/06/26 09:10:56;;;;;;;5.70;4.88;;;21.40;99.90;;;;;;5023645;28;20045;-83
2022/06/26 09:13:22;;;;;;;5.43;3.97;;;21.40;99.90;;;;;;4988013;28;20078;-81
2022/06/26 09:15:50;;;;;;;4.53;3.35;;;21.30;99.90;;;;;;4984364;28;20077;-82
2022/06/26 09:18:16;;;;;;;6.38;4.60;;;21.40;99.90;;;;;;5017539;28;20034;-84
2022/06/26 09:20:54;;;;;;;6.00;4.88;;;21.40;99.90;;;;;;5012569;28;20132;-81
2022/06/26 09:23:20;;;;;;;5.10;4.20;;;21.60;99.90;;;;;;5030625;28;20033;-82
2022/06/26 09:25:46;;;;;;;4.78;4.22;;;21.80;99.90;;;;;;4993629;28;20044;-82
2022/06/26 09:28:15;;;;;;;4.40;3.97;;;21.80;99.90;;;;;;5023125;28;20042;-83
2022/06/26 09:30:57;;;;;;;7.13;4.18;;;22.00;99.90;;;;;;5032229;28;20045;-81
2022/06/26 09:33:31;;;;;;;5.55;4.07;;;22.10;99.90;;;;;;5009150;28;20053;-82
2022/06/26 09:35:58;;;;;;;5.95;4.68;;;22.30;99.90;;;;;;5013548;28;20120;-84
2022/06/26 09:38:31;;;;;;;9.27;5.25;;;22.30;99.90;;;;;;5026113;28;20065;-83
2022/06/26 09:40:59;;;;;;;5.90;5.18;;;22.30;99.90;;;;;;5032974;28;20049;-82
2022/06/26 09:43:29;;;;;;;5.20;4.55;;;22.30;99.90;;;;;;5014409;28;20120;-83
2022/06/26 09:45:56;;;;;;;5.13;4.45;;;22.20;99.90;;;;;;5019261;28;20429;-82
2022/06/26 09:48:24;;;;;;;7.22;4.95;;;22.20;99.90;;;;;;5018812;28;20140;-81
2022/06/26 09:50:51;;;;;;;6.15;3.75;;;22.20;99.90;;;;;;5023406;28;20506;-83
2022/06/26 09:53:18;;;;;;;4.65;3.40;;;22.40;99.90;;;;;;5048904;28;20045;-83
2022/06/26 09:55:46;;;;;;;4.18;3.20;;;22.60;99.90;;;;;;5004718;28;20103;-81
2022/06/26 09:58:12;;;;;;;5.22;3.03;;;22.70;99.90;;;;;;5028817;28;20167;-83
2022/06/26 10:00:39;;;;;;;5.20;2.60;;;22.80;99.90;;;;;;5008656;28;20473;-82
2022/06/26 10:08:43;;;;;;;3.80;3.08;;;22.40;99.90;;;;;;5026348;28;20509;-83
2022/06/26 10:11:09;;;;;;;3.50;3.17;;;22.30;99.90;;;;;;5027374;28;20039;-81
2022/06/26 10:13:39;;;;;;;5.50;3.05;;;22.30;99.90;;;;;;5011048;28;20414;-82
2022/06/26 10:16:24;;;;;;;4.47;2.88;;;22.20;99.90;;;;;;5012367;28;20099;-83
2022/06/26 10:19:02;;;;;;;4.60;2.75;;;22.20;99.90;;;;;;5006945;28;20042;-84
2022/06/26 10:21:33;;;;;;;4.47;2.90;;;22.20;99.90;;;;;;5022728;28;20038;-82
2022/06/26 10:24:03;;;;;;;5.00;3.10;;;22.20;99.90;;;;;;5046133;28;20038;-83
2022/06/26 10:26:29;;;;;;;5.05;3.92;;;22.20;99.90;;;;;;5032123;28;20466;-82
2022/06/26 10:29:06;;;;;;;4.43;3.63;;;22.30;99.90;;;;;;5016468;28;20121;-82
2022/06/26 10:31:52;;;;;;;4.68;3.75;;;22.30;99.90;;;;;;5030216;28;20050;-82
2022/06/26 10:34:23;;;;;;;4.22;3.58;;;22.30;99.90;;;;;;4998864;28;20037;-82
2022/06/26 10:37:15;;;;;;;5.25;4.00;;;22.40;99.90;;;;;;5018803;28;20058;-83
2022/06/26 10:43:11;;;;;;;6.10;4.47;;;22.50;99.90;;;;;;5039134;28;20046;-83
2022/06/26 10:45:38;;;;;;;4.97;3.88;;;22.50;99.90;;;;;;5040777;28;20048;-83
2022/06/26 10:48:18;;;;;;;4.38;3.97;;;22.40;99.90;;;;;;5050421;28;20037;-83
2022/06/26 10:50:45;;;;;;;4.13;3.38;;;22.30;99.90;;;;;;5017131;28;20570;-83
2022/06/26 10:53:18;;;;;;;4.85;3.42;;;22.50;99.90;;;;;;5022581;28;20050;-86
2022/06/26 10:55:48;;;;;;;5.15;3.75;;;22.60;99.90;;;;;;5043936;28;20075;-84
2022/06/26 10:58:19;;;;;;;4.93;3.60;;;22.50;99.30;;;;;;5040288;28;20469;-83
2022/06/26 11:00:45;;;;;;;6.63;3.45;;;22.50;99.20;;;;;;5019056;28;20494;-83
2022/06/26 11:03:16;;;;;;;4.05;3.60;;;22.40;99.60;;;;;;5042179;28;20041;-83
2022/06/26 11:06:00;;;;;;;3.60;3.13;;;22.30;99.50;;;;;;5037127;28;20088;-84
2022/06/26 11:08:43;;;;;;;5.10;3.60;;;22.40;99.50;;;;;;5029742;28;20049;-84
2022/06/26 11:11:17;;;;;;;6.57;3.40;;;22.50;99.80;;;;;;5012736;28;20052;-84
2022/06/26 11:13:50;;;;;;;5.15;4.00;;;22.50;99.50;;;;;;5017083;28;20041;-82
2022/06/26 11:16:16;;;;;;;6.55;3.90;;;22.40;99.30;;;;;;5019415;28;20048;-84
2022/06/26 11:18:42;;;;;;;4.72;3.80;;;22.40;99.50;;;;;;5050905;28;20045;-83
2022/06/26 11:21:08;;;;;;;5.30;3.72;;;22.30;99.40;;;;;;4979476;28;20045;-84
2022/06/26 11:23:36;;;;;;;6.32;3.83;;;22.20;99.60;;;;;;5032615;28;20572;-83
2022/06/26 11:26:08;;;;;;;5.03;3.67;;;22.20;99.30;;;;;;5025518;28;20679;-83
2022/06/26 11:28:40;;;;;;;5.15;3.80;;;22.20;99.40;;;;;;5021712;28;20076;-83
2022/06/26 11:31:09;;;;;;;3.72;3.33;;;22.30;99.70;;;;;;5032855;28;20132;-83
2022/06/26 11:33:39;;;;;;;5.82;3.20;;;22.50;99.50;;;;;;5025592;28;20041;-84
2022/06/26 11:36:12;;;;;;;3.88;3.33;;;22.70;99.10;;;;;;5032746;28;20079;-84
2022/06/26 11:38:38;;;;;;;4.15;3.10;;;22.80;98.70;;;;;;5026540;28;20045;-84
2022/06/26 11:41:06;;;;;;;4.55;3.05;;;22.80;98.20;;;;;;5005931;28;20057;-86
2022/06/26 11:43:32;;;;;;;4.00;3.28;;;23.00;98.80;;;;;;5024702;28;20076;-85
2022/06/26 11:46:00;;;;;;;6.88;3.42;;;23.10;98.10;;;;;;5027708;28;20048;-83
2022/06/26 11:48:27;;;;;;;4.10;2.63;;;23.10;97.80;;;;;;5035883;28;20037;-83
2022/06/26 11:50:54;;;;;;;4.30;3.10;;;23.20;98.00;;;;;;5055144;28;20095;-85
2022/06/26 11:53:26;;;;;;;4.75;3.22;;;23.20;97.20;;;;;;5039947;28;20487;-85
2022/06/26 11:55:55;;;;;;;4.13;2.50;;;23.20;96.60;;;;;;4996664;28;20453;-85
2022/06/26 11:58:23;;;;;;;3.35;2.40;;;23.20;96.10;;;;;;5023529;28;20490;-84
2022/06/26 12:00:50;;;;;;;5.00;3.40;;;23.20;95.90;;;;;;5038367;28;20397;-85
2022/06/26 12:03:16;;;;;;;4.05;3.38;;;23.30;96.20;;;;;;5032722;28;20037;-86
2022/06/26 12:05:43;;;;;;;4.45;3.25;;;23.20;96.30;;;;;;5032990;28;20045;-85
2022/06/26 12:08:19;;;;;;;3.75;2.78;;;23.20;96.00;;;;;;5009006;28;20379;-86
2022/06/26 12:10:52;;;;;;;5.72;2.97;;;23.30;96.10;;;;;;5025411;28;20376;-85
2022/06/26 12:13:24;;;;;;;4.97;2.65;;;23.50;96.60;;;;;;5024900;28;20042;-85
2022/06/26 12:15:50;;;;;;;4.47;2.70;;;23.50;96.10;;;;;;5037903;28;20179;-86
2022/06/26 12:18:16;;;;;;;3.92;2.40;;;23.80;96.10;;;;;;5029175;28;20045;-85
2022/06/26 12:20:42;;;;;;;4.25;2.47;;;23.90;95.80;;;;;;5027862;28;20047;-84
2022/06/26 12:23:09;;;;;;;10.65;3.05;;;23.90;95.10;;;;;;4993817;28;20046;-86
2022/06/26 12:25:37;;;;;;;3.50;2.60;;;23.80;94.90;;;;;;5020644;28;20333;-86
2022/06/26 12:28:04;;;;;;;5.00;2.50;;;23.80;94.80;;;;;;5038160;28;20049;-84
2022/06/26 12:30:35;;;;;;;4.05;2.80;;;23.90;94.70;;;;;;5011000;28;20039;-84
2022/06/26 12:33:04;;;;;;;3.87;2.60;;;24.00;95.00;;;;;;5020819;28;20049;-85
2022/06/26 12:35:31;;;;;;;5.72;2.63;;;24.00;94.80;;;;;;5052729;28;20403;-84
2022/06/26 12:37:58;;;;;;;4.15;2.38;;;24.00;95.30;;;;;;5011519;28;20053;-86
2022/06/26 12:40:25;;;;;;;4.63;2.83;;;23.90;95.00;;;;;;5002867;28;20050;-86
2022/06/26 12:42:51;;;;;;;5.25;2.88;;;23.70;94.40;;;;;;5008330;28;20034;-86
2022/06/26 12:45:17;;;;;;;5.15;3.00;;;23.60;94.50;;;;;;5002297;28;20041;-83
2022/06/26 12:47:43;;;;;;;4.50;3.00;;;23.40;94.60;;;;;;5050561;28;20095;-86
2022/06/26 12:50:11;;;;;;;5.35;2.95;;;23.30;94.60;;;;;;5016107;28;20041;-85
2022/06/26 12:52:37;;;;;;;5.95;2.70;;;23.10;94.70;;;;;;5010070;28;20041;-84